Time;durP1;ratioP1;P1;durP2;ratioP2;P2;SDS_P1;SDS_P2;PMS_P1;PMS_P2;Temp;Humidity;BMP_temperature;BMP_pressure;BME280_temperature;BME280_humidity;BME280_pressure;Samples;Min_cycle;Max_cycle;Signal;HPM_P1;HPM_P2
2024/03/17 00:02:15;;;;;;;62.00;33.80;;;;;;;6.24;100.00;101129.60;106377;1254;71418;-83
2024/03/17 00:04:55;;;;;;;61.90;35.70;;;;;;;6.24;100.00;101127.34;106283;1253;61721;-78
2024/03/17 00:07:34;;;;;;;70.60;38.90;;;;;;;6.29;100.00;101126.72;106413;1256;61320;-79
2024/03/17 00:10:09;;;;;;;60.40;35.80;;;;;;;6.39;100.00;101121.29;106484;1254;72627;-78
2024/03/17 00:12:43;;;;;;;63.90;37.00;;;;;;;6.43;100.00;101119.00;106566;1254;68460;-78
2024/03/17 00:15:22;;;;;;;64.70;36.60;;;;;;;6.45;100.00;101115.13;107725;1257;72437;-78
2024/03/17 00:18:02;;;;;;;63.70;35.50;;;;;;;6.43;100.00;101113.99;106333;1257;61301;-78
2024/03/17 00:20:37;;;;;;;59.70;34.30;;;;;;;6.44;100.00;101112.60;106459;1252;61297;-78
2024/03/17 00:23:12;;;;;;;68.10;34.90;;;;;;;6.43;100.00;101106.55;106899;1254;77386;-78
2024/03/17 00:25:52;;;;;;;60.30;33.40;;;;;;;6.41;100.00;101104.33;106152;1254;68454;-78
2024/03/17 00:28:32;;;;;;;59.30;32.60;;;;;;;6.42;100.00;101103.16;106675;1254;72445;-78
2024/03/17 00:31:05;;;;;;;59.70;34.40;;;;;;;6.40;100.00;101100.34;106437;1255;61289;-78
2024/03/17 00:33:33;;;;;;;63.70;36.90;;;;;;;6.44;100.00;101102.61;106466;1254;61249;-78
2024/03/17 00:36:07;;;;;;;63.90;36.10;;;;;;;6.45;100.00;101098.17;106470;1257;74640;-78
2024/03/17 00:38:40;;;;;;;61.80;34.30;;;;;;;6.45;100.00;101099.10;106497;1253;68940;-78
2024/03/17 00:41:14;;;;;;;67.40;35.60;;;;;;;6.40;100.00;101096.38;106464;1254;72716;-78
2024/03/17 00:43:51;;;;;;;62.20;37.30;;;;;;;6.34;100.00;101094.57;106859;1254;61321;-78
2024/03/17 00:46:24;;;;;;;54.60;31.40;;;;;;;6.37;100.00;101090.45;106335;1252;61600;-78
2024/03/17 00:48:52;;;;;;;50.90;29.30;;;;;;;6.40;100.00;101090.58;106630;1253;74637;-78
2024/03/17 00:51:26;;;;;;;55.50;29.70;;;;;;;6.42;100.00;101087.20;106447;1254;68343;-78
2024/03/17 00:53:59;;;;;;;52.60;29.20;;;;;;;6.43;100.00;101084.56;106331;1253;72769;-78
2024/03/17 00:56:33;;;;;;;51.20;31.60;;;;;;;6.40;100.00;101085.98;106476;1254;61348;-78
2024/03/17 00:59:01;;;;;;;58.80;31.80;;;;;;;6.44;100.00;101085.83;107169;1254;61251;-78
2024/03/17 01:01:34;;;;;;;52.70;30.00;;;;;;;6.49;100.00;101083.11;106503;1254;75540;-78
2024/03/17 01:04:08;;;;;;;53.00;29.40;;;;;;;6.52;100.00;101076.00;106429;1254;68716;-78
2024/03/17 01:06:42;;;;;;;52.10;29.40;;;;;;;6.48;100.00;101075.93;106969;1254;72095;-78
2024/03/17 01:09:09;;;;;;;56.50;30.50;;;;;;;6.44;100.00;101073.73;106498;1252;63888;-78
2024/03/17 01:11:43;;;;;;;52.20;30.80;;;;;;;6.33;100.00;101073.55;106992;1254;60754;-78
2024/03/17 01:14:17;;;;;;;54.80;31.70;;;;;;;6.35;100.00;101068.63;106380;1253;74766;-78
2024/03/17 01:16:51;;;;;;;76.50;38.60;;;;;;;6.43;100.00;101066.48;106500;1254;67850;-78
2024/03/17 01:19:26;;;;;;;69.90;39.40;;;;;;;6.54;100.00;101067.36;106419;1254;71810;-78
2024/03/17 01:21:54;;;;;;;57.40;31.10;;;;;;;6.54;100.00;101062.80;106364;1253;61244;-78
2024/03/17 01:24:31;;;;;;;45.00;27.50;;;;;;;6.56;100.00;101059.67;107023;1252;61125;-78
2024/03/17 01:27:05;;;;;;;44.90;26.30;;;;;;;6.59;100.00;101059.83;106620;1259;73208;-78
2024/03/17 01:29:38;;;;;;;43.80;25.70;;;;;;;6.58;100.00;101060.69;106590;1256;67152;-78
2024/03/17 01:32:06;;;;;;;41.50;24.10;;;;;;;6.57;100.00;101061.70;106401;1254;72624;-78
2024/03/17 01:34:40;;;;;;;43.30;24.80;;;;;;;6.57;100.00;101060.98;106427;1253;61630;-83
2024/03/17 01:37:13;;;;;;;44.60;23.90;;;;;;;6.65;100.00;101057.77;106655;1254;61241;-84
2024/03/17 01:39:41;;;;;;;38.90;23.50;;;;;;;6.67;100.00;101056.10;106360;1254;74604;-83
2024/03/17 01:42:15;;;;;;;51.70;29.50;;;;;;;6.67;100.00;101056.37;107206;1253;68324;-84
2024/03/17 01:44:50;;;;;;;47.40;27.00;;;;;;;6.69;100.00;101053.54;106284;1254;72646;-83
2024/03/17 01:47:18;;;;;;;52.30;27.30;;;;;;;6.69;100.00;101054.63;106699;1256;61250;-84
2024/03/17 01:49:47;;;;;;;52.50;28.90;;;;;;;6.62;100.00;101050.11;106575;1254;61137;-83
2024/03/17 01:52:21;;;;;;;44.20;27.40;;;;;;;6.61;100.00;101056.40;106625;1256;73787;-82
2024/03/17 01:54:49;;;;;;;54.20;29.10;;;;;;;6.57;100.00;101053.88;107056;1252;68404;-84
2024/03/17 01:57:21;;;;;;;50.40;29.60;;;;;;;6.60;100.00;101050.84;106587;1253;72602;-83
2024/03/17 01:59:48;;;;;;;47.80;27.80;;;;;;;6.65;100.00;101045.08;106523;1259;61135;-83
2024/03/17 02:02:22;;;;;;;46.70;28.50;;;;;;;6.65;100.00;101044.20;106448;1254;61391;-83
2024/03/17 02:04:54;;;;;;;53.10;29.90;;;;;;;6.69;100.00;101046.85;106548;1254;75110;-83
2024/03/17 02:07:22;;;;;;;47.30;27.90;;;;;;;6.71;100.00;101048.46;106405;1254;267240;-84
2024/03/17 02:09:56;;;;;;;54.80;30.80;;;;;;;6.64;100.00;101042.85;106775;1257;71404;-83
2024/03/17 02:12:31;;;;;;;47.20;28.50;;;;;;;6.63;100.00;101039.55;106461;1256;61212;-83
2024/03/17 02:15:05;;;;;;;47.80;27.40;;;;;;;6.61;100.00;101041.36;106533;1256;62149;-82
2024/03/17 02:17:33;;;;;;;38.70;23.90;;;;;;;6.56;100.00;101041.35;105948;1254;73384;-83
2024/03/17 02:20:11;;;;;;;39.70;24.40;;;;;;;6.60;100.00;101035.79;105902;1256;67671;-83
2024/03/17 02:22:44;;;;;;;46.30;25.60;;;;;;;6.61;100.00;101036.18;106308;1253;72996;-83
2024/03/17 02:25:18;;;;;;;45.20;25.70;;;;;;;6.59;100.00;101034.41;106267;1253;61571;-83
2024/03/17 02:27:46;;;;;;;40.30;23.70;;;;;;;6.56;100.00;101031.48;106095;1254;61299;-83
2024/03/17 02:30:19;;;;;;;42.50;24.70;;;;;;;6.58;100.00;101032.32;105818;1259;74751;-83
2024/03/17 02:32:52;;;;;;;47.70;26.20;;;;;;;6.57;100.00;101033.17;106022;1254;67116;-83
2024/03/17 02:35:26;;;;;;;40.90;26.10;;;;;;;6.58;100.00;101028.75;106838;1256;71383;-83
2024/03/17 02:37:54;;;;;;;40.60;25.30;;;;;;;6.59;100.00;101031.00;106063;1253;61358;-83
2024/03/17 02:40:27;;;;;;;43.70;25.60;;;;;;;6.57;100.00;101024.55;105999;1254;61320;-82
2024/03/17 02:43:01;;;;;;;43.60;25.20;;;;;;;6.61;100.00;101022.23;106095;1254;74216;-83
2024/03/17 02:45:36;;;;;;;41.00;24.20;;;;;;;6.58;100.00;101025.98;106034;1256;67148;-81
2024/03/17 02:48:06;;;;;;;42.90;24.70;;;;;;;6.55;100.00;101025.09;105911;1254;71399;-83
2024/03/17 02:50:39;;;;;;;44.70;26.30;;;;;;;6.55;100.00;101021.14;106080;1256;60430;-78
2024/03/17 02:53:14;;;;;;;42.60;25.50;;;;;;;6.53;100.00;101016.20;106269;1256;61323;-78
2024/03/17 02:55:41;;;;;;;44.90;26.40;;;;;;;6.52;100.00;101018.23;105965;1254;74597;-83
2024/03/17 02:58:15;;;;;;;46.20;26.30;;;;;;;6.58;100.00;101015.98;106078;1253;66379;-78
2024/03/17 03:00:49;;;;;;;52.50;31.40;;;;;;;6.62;100.00;101014.81;106558;1252;72688;-83
2024/03/17 03:03:17;;;;;;;43.90;27.70;;;;;;;6.61;100.00;101010.61;106322;1254;61278;-78
2024/03/17 03:05:52;;;;;;;48.10;29.70;;;;;;;6.62;100.00;101010.64;106101;1253;61336;-83
2024/03/17 03:08:26;;;;;;;40.10;25.60;;;;;;;6.58;100.00;101008.54;106075;1252;73330;-78
2024/03/17 03:10:53;;;;;;;42.10;24.90;;;;;;;6.54;100.00;101006.66;106121;1256;68825;-83
2024/03/17 03:13:27;;;;;;;41.00;24.30;;;;;;;6.51;100.00;101009.42;105902;1256;71474;-82
2024/03/17 03:16:00;;;;;;;44.90;26.20;;;;;;;6.52;100.00;101011.99;105914;1254;61483;-83
2024/03/17 03:18:36;;;;;;;46.40;25.30;;;;;;;6.52;100.00;101008.95;105917;1256;61160;-78
2024/03/17 03:21:04;;;;;;;39.10;24.90;;;;;;;6.53;100.00;101012.94;106023;1252;73449;-82
2024/03/17 03:23:38;;;;;;;49.80;30.20;;;;;;;6.52;100.00;101009.54;106234;1256;68457;-83
2024/03/17 03:26:12;;;;;;;48.60;29.30;;;;;;;6.54;100.00;101006.77;106047;1254;72754;-83
2024/03/17 03:28:45;;;;;;;41.40;25.20;;;;;;;6.54;100.00;101009.00;105919;1254;61589;-83
2024/03/17 03:31:13;;;;;;;43.10;26.70;;;;;;;6.46;100.00;101007.15;106055;1254;61167;-77
2024/03/17 03:33:47;;;;;;;43.80;26.10;;;;;;;6.45;100.00;101003.48;105920;1254;73723;-77
2024/03/17 03:36:21;;;;;;;45.70;25.50;;;;;;;6.49;100.00;101001.07;105982;1256;67154;-83
2024/03/17 03:38:55;;;;;;;40.90;25.60;;;;;;;6.51;100.00;101005.02;106093;1254;72669;-82
2024/03/17 03:41:23;;;;;;;67.30;36.20;;;;;;;6.53;100.00;101003.54;106177;1254;61364;-78
2024/03/17 03:43:57;;;;;;;120.70;62.60;;;;;;;6.53;100.00;101003.48;106682;1259;61183;-83
2024/03/17 11:48:38;;;;;;;6.10;3.80;;;;;;;15.49;77.43;100746.21;106056;1254;71240;-77
2024/03/17 11:51:18;;;;;;;5.70;3.90;;;;;;;15.59;76.14;100742.73;106005;1254;74856;-84
2024/03/17 11:54:05;;;;;;;6.60;3.70;;;;;;;15.62;72.37;100731.20;106131;1254;61289;-83
2024/03/17 11:56:38;;;;;;;6.10;4.30;;;;;;;15.57;73.03;100734.84;106056;1258;61449;-77
2024/03/17 11:59:12;;;;;;;5.20;3.40;;;;;;;15.60;76.37;100728.21;106026;1255;76539;-77
2024/03/17 12:01:53;;;;;;;4.70;3.20;;;;;;;15.65;75.59;100725.17;105906;1254;69991;-84
2024/03/17 12:04:32;;;;;;;4.80;3.30;;;;;;;15.59;73.83;100722.73;106552;1256;75020;-85
2024/03/17 12:07:11;;;;;;;4.70;3.00;;;;;;;15.47;74.60;100728.52;105977;1256;62285;-78
2024/03/17 12:09:47;;;;;;;4.30;3.00;;;;;;;15.41;74.90;100726.53;105991;1254;61442;-83
2024/03/17 12:12:34;;;;;;;6.30;3.10;;;;;;;15.41;72.35;100729.20;105996;1257;76750;-77
2024/03/17 12:15:25;;;;;;;7.30;3.70;;;;;;;15.39;71.68;100728.84;105893;1253;70461;-84
2024/03/17 12:18:05;;;;;;;4.60;3.20;;;;;;;15.41;71.99;100730.34;106102;1257;74956;-85
2024/03/17 12:20:33;;;;;;;3.90;2.80;;;;;;;15.51;72.06;100724.65;106843;1253;62535;-85
2024/03/17 12:23:20;;;;;;;4.50;2.90;;;;;;;15.56;72.84;100726.66;106809;1253;62232;-84
2024/03/17 12:26:00;;;;;;;5.50;3.40;;;;;;;15.55;73.35;100724.02;107290;1254;75384;-84
2024/03/17 12:28:40;;;;;;;4.20;3.00;;;;;;;15.51;72.67;100720.95;106711;1257;70173;-84
2024/03/17 12:31:14;;;;;;;6.50;2.90;;;;;;;15.43;74.05;100718.91;106322;1254;74260;-78
2024/03/17 12:33:48;;;;;;;5.30;3.10;;;;;;;15.42;76.15;100715.61;106318;1257;61256;-84
2024/03/17 12:36:28;;;;;;;5.80;3.50;;;;;;;15.37;75.54;100715.83;107064;1256;61189;-83
2024/03/17 12:39:27;;;;;;;6.60;3.30;;;;;;;15.27;73.74;100714.44;105892;1257;75928;-82
2024/03/17 12:42:17;;;;;;;5.60;3.30;;;;;;;15.17;74.12;100715.61;106035;1254;70025;-77
2024/03/17 12:45:02;;;;;;;4.50;3.20;;;;;;;15.08;75.95;100716.16;106658;1254;75107;-78
2024/03/17 12:47:42;;;;;;;4.90;2.90;;;;;;;15.01;78.15;100717.54;106807;1254;62744;-77
2024/03/17 12:50:23;;;;;;;5.90;3.60;;;;;;;14.92;77.92;100716.21;106287;1259;62069;-85
2024/03/17 12:53:03;;;;;;;6.30;3.60;;;;;;;14.83;78.82;100715.72;106834;1254;74544;-84
2024/03/17 13:01:40;;;;;;;6.00;3.20;;;;;;;14.53;85.67;100714.21;106004;1254;61352;-84
2024/03/17 13:04:08;;;;;;;4.50;3.20;;;;;;;14.45;87.58;100712.95;106047;1254;61148;-77
2024/03/17 13:06:49;;;;;;;4.80;3.30;;;;;;;14.44;88.51;100716.23;106381;1254;75582;-77
2024/03/17 13:09:29;;;;;;;5.40;3.60;;;;;;;14.41;89.67;100711.64;106221;1254;71060;-77
2024/03/17 13:12:18;;;;;;;5.10;3.60;;;;;;;14.41;89.70;100716.59;106179;1253;73992;-77
2024/03/17 13:14:58;;;;;;;6.30;3.70;;;;;;;14.39;90.29;100717.22;105874;1254;62424;-77
2024/03/17 13:17:39;;;;;;;6.60;3.60;;;;;;;14.39;90.62;100717.49;106094;1254;61240;-83
2024/03/17 13:20:20;;;;;;;5.40;3.50;;;;;;;14.36;91.97;100716.00;107561;1256;74503;-77
2024/03/17 13:23:00;;;;;;;6.60;3.90;;;;;;;14.35;91.02;100712.23;106243;1254;70793;-77
2024/03/17 13:25:43;;;;;;;6.30;3.80;;;;;;;14.28;87.82;100712.55;106120;1253;75127;-77
2024/03/17 13:28:22;;;;;;;5.80;3.80;;;;;;;14.13;89.44;100711.93;105925;1253;61318;-84
2024/03/17 13:31:04;;;;;;;5.00;3.40;;;;;;;14.08;91.01;100712.39;105949;1257;61433;-80
2024/03/17 13:33:44;;;;;;;6.30;3.90;;;;;;;14.10;91.05;100706.00;105930;1254;76878;-83
2024/03/17 13:36:24;;;;;;;7.90;4.20;;;;;;;14.07;91.31;100706.58;105960;1254;70818;-83
2024/03/17 13:39:09;;;;;;;5.60;3.70;;;;;;;14.03;91.15;100706.09;106017;1254;74349;-77
2024/03/17 13:41:51;;;;;;;7.10;3.60;;;;;;;13.97;91.67;100706.11;106392;1255;61403;-76
2024/03/17 13:44:31;;;;;;;6.10;4.30;;;;;;;13.92;91.07;100699.14;106141;1253;62147;-84
2024/03/17 13:47:11;;;;;;;7.50;4.20;;;;;;;13.89;91.34;100698.60;106736;1254;74664;-77
2024/03/17 13:49:51;;;;;;;6.00;4.00;;;;;;;13.85;92.12;100697.02;106567;1254;69182;-76
2024/03/17 13:52:32;;;;;;;6.10;3.60;;;;;;;13.81;92.77;100693.80;106076;1257;72209;-77
2024/03/17 13:55:14;;;;;;;5.60;3.90;;;;;;;13.79;94.21;100692.46;106081;1254;62277;-83
2024/03/17 13:57:59;;;;;;;5.90;3.80;;;;;;;13.75;93.84;100694.27;106504;1252;61409;-83
2024/03/17 14:00:42;;;;;;;5.60;3.60;;;;;;;13.72;93.69;100692.89;106096;1254;76660;-76
2024/03/17 14:03:21;;;;;;;5.30;3.70;;;;;;;13.70;94.50;100692.74;106098;1254;70164;-76
2024/03/17 14:06:01;;;;;;;6.00;3.70;;;;;;;13.70;95.10;100688.91;105951;1257;74895;-83
2024/03/17 14:08:42;;;;;;;6.10;3.70;;;;;;;13.69;96.51;100685.02;105778;1256;61236;-76
2024/03/17 14:11:21;;;;;;;5.60;3.80;;;;;;;13.67;98.32;100679.98;106050;1254;61471;-77
2024/03/17 14:14:02;;;;;;;5.60;3.50;;;;;;;13.61;98.27;100681.77;106108;1256;76801;-82
2024/03/17 14:16:44;;;;;;;5.20;3.50;;;;;;;13.60;98.70;100679.86;106014;1257;70755;-83
2024/03/17 14:19:24;;;;;;;4.70;3.40;;;;;;;13.51;99.57;100678.88;105896;1257;74170;-77
2024/03/17 14:22:03;;;;;;;6.60;4.00;;;;;;;13.49;99.25;100677.02;106275;1254;62013;-83
2024/03/17 14:24:43;;;;;;;6.10;3.50;;;;;;;13.48;99.24;100678.90;106389;1254;61212;-83
2024/03/17 14:27:23;;;;;;;5.40;3.60;;;;;;;13.44;99.95;100680.34;106067;1254;76886;-76
2024/03/17 14:30:04;;;;;;;4.60;3.50;;;;;;;13.42;100.00;100679.36;106230;1256;71226;-83
2024/03/17 14:32:44;;;;;;;6.20;3.90;;;;;;;13.40;100.00;100675.27;106106;1254;74984;-82
2024/03/17 14:35:26;;;;;;;5.80;3.70;;;;;;;13.34;100.00;100676.01;106146;1254;65747;-76
2024/03/17 14:38:07;;;;;;;;;;;;;;;13.30;100.00;100675.39;106078;1253;61354;-82
2024/03/17 14:40:47;;;;;;;4.90;3.30;;;;;;;13.30;100.00;100677.04;106022;1257;76994;-76
2024/03/17 14:43:14;;;;;;;5.00;3.30;;;;;;;13.29;100.00;100677.92;106255;1254;69386;-76
2024/03/17 14:45:55;;;;;;;5.10;3.40;;;;;;;13.25;100.00;100677.23;109192;1253;73581;-83
2024/03/17 14:48:35;;;;;;;6.20;3.40;;;;;;;13.25;100.00;100677.77;109257;1253;62219;-83
2024/03/17 14:51:15;;;;;;;4.60;3.40;;;;;;;13.19;100.00;100676.47;106380;1254;62020;-76
2024/03/17 14:53:47;;;;;;;5.40;3.20;;;;;;;13.16;100.00;100675.23;106360;1253;76575;-76
2024/03/17 14:56:27;;;;;;;5.70;3.40;;;;;;;13.13;100.00;100673.08;109345;1253;70434;-84
2024/03/17 14:59:08;;;;;;;5.00;3.50;;;;;;;13.10;100.00;100671.74;108302;1254;74996;-82
2024/03/17 15:01:48;;;;;;;5.10;3.60;;;;;;;13.08;100.00;100673.02;106798;1254;61247;-76
2024/03/17 15:04:15;;;;;;;4.50;3.00;;;;;;;13.06;100.00;100670.08;107767;1253;61981;-76
2024/03/17 15:06:55;;;;;;;4.80;3.30;;;;;;;13.00;100.00;100669.31;106126;1252;76969;-76
2024/03/17 15:09:35;;;;;;;5.00;3.20;;;;;;;12.99;100.00;100671.96;106405;1256;71131;-83
2024/03/17 15:12:09;;;;;;;6.30;3.30;;;;;;;12.99;100.00;100668.40;105895;1254;73992;-76
2024/03/17 15:14:43;;;;;;;4.50;2.90;;;;;;;12.96;100.00;100674.55;105970;1252;61385;-76
2024/03/17 15:17:23;;;;;;;4.50;2.90;;;;;;;12.90;100.00;100674.02;106085;1254;61367;-83
2024/03/17 15:20:22;;;;;;;5.50;3.40;;;;;;;12.83;100.00;100677.88;107661;1253;77047;-78
2024/03/17 15:23:02;;;;;;;4.70;3.40;;;;;;;12.79;100.00;100682.36;106029;1254;69636;-83
2024/03/17 15:25:36;;;;;;;6.80;3.40;;;;;;;12.76;100.00;100680.30;106413;1253;74826;-83
2024/03/17 15:28:12;;;;;;;5.70;3.10;;;;;;;12.76;100.00;100683.38;106082;1253;62358;-76
2024/03/17 15:30:52;;;;;;;4.70;3.00;;;;;;;12.73;100.00;100680.05;106039;1255;62453;-76
2024/03/17 15:33:34;;;;;;;5.20;3.30;;;;;;;12.66;100.00;100680.45;105939;1253;77815;-84
2024/03/17 15:36:08;;;;;;;6.80;3.40;;;;;;;12.59;100.00;100680.40;106024;1257;68729;-76
2024/03/17 15:38:43;;;;;;;9.30;4.10;;;;;;;12.54;100.00;100682.36;105961;1254;74807;-76
2024/03/17 15:41:23;;;;;;;5.30;3.40;;;;;;;12.48;100.00;100685.02;105972;1254;61158;-83
2024/03/17 15:44:02;;;;;;;12.50;6.80;;;;;;;12.45;100.00;100685.50;105963;1257;60384;-83
2024/03/17 19:46:52;;;;;;;16.90;9.70;;;;;;;9.70;100.00;100610.66;105988;1254;77620;-81
2024/03/17 19:49:25;;;;;;;16.10;9.60;;;;;;;9.68;100.00;100608.90;105915;1254;70680;-82
2024/03/17 19:52:01;;;;;;;16.80;10.40;;;;;;;9.69;100.00;100606.47;106085;1256;73224;-76
2024/03/17 19:54:34;;;;;;;18.00;9.70;;;;;;;9.71;100.00;100607.77;106978;1254;62062;-76
2024/03/17 19:57:08;;;;;;;14.70;9.30;;;;;;;9.70;100.00;100606.89;105953;1254;62343;-76
2024/03/17 19:59:45;;;;;;;16.40;9.60;;;;;;;9.74;100.00;100606.80;106160;1256;76415;-76
2024/03/17 20:02:13;;;;;;;15.30;9.70;;;;;;;9.79;100.00;100604.78;105975;1256;71089;-82
2024/03/17 20:04:47;;;;;;;17.80;9.90;;;;;;;9.82;100.00;100600.87;105983;1254;74889;-82
2024/03/17 20:07:20;;;;;;;16.00;10.00;;;;;;;9.86;100.00;100598.19;106032;1253;62222;-82
2024/03/17 20:09:48;;;;;;;17.60;10.60;;;;;;;9.84;100.00;100597.81;106475;1252;62520;-83
2024/03/17 20:12:22;;;;;;;19.00;10.60;;;;;;;9.82;100.00;100598.46;106609;1254;76573;-82
2024/03/17 20:14:56;;;;;;;17.00;10.40;;;;;;;9.83;100.00;100600.97;106155;1256;69736;-83
2024/03/17 20:17:31;;;;;;;16.60;9.40;;;;;;;9.83;100.00;100598.84;106120;1254;73570;-83
2024/03/17 20:20:00;;;;;;;16.20;10.10;;;;;;;9.80;100.00;100602.02;106237;1254;62311;-82
2024/03/17 20:22:34;;;;;;;20.70;10.40;;;;;;;9.78;100.00;100605.54;106096;1252;62146;-82
2024/03/17 20:25:10;;;;;;;18.10;10.40;;;;;;;9.77;100.00;100601.45;106061;1253;77110;-77
2024/03/17 20:27:44;;;;;;;16.30;9.60;;;;;;;9.80;100.00;100605.55;106022;1259;69839;-76
2024/03/17 20:30:12;;;;;;;15.90;9.90;;;;;;;9.82;100.00;100601.27;105990;1257;73836;-76
2024/03/17 20:32:45;;;;;;;19.30;10.80;;;;;;;9.82;100.00;100596.05;106766;1254;62034;-77
2024/03/17 20:35:13;;;;;;;17.10;10.90;;;;;;;9.83;100.00;100598.13;106103;1253;62057;-77
2024/03/17 20:37:41;;;;;;;18.60;10.90;;;;;;;9.84;100.00;100595.79;106158;1257;76364;-76
2024/03/17 20:40:09;;;;;;;18.90;11.70;;;;;;;9.82;100.00;100594.52;106084;1254;70764;-77
2024/03/17 20:42:51;;;;;;;16.00;9.50;;;;;;;9.81;100.00;100592.02;106153;1254;75002;-77
2024/03/17 20:45:27;;;;;;;19.20;10.90;;;;;;;9.80;100.00;100591.41;106042;1254;62181;-77
2024/03/17 20:47:55;;;;;;;17.10;10.80;;;;;;;9.81;100.00;100590.59;106912;1252;62072;-77
2024/03/17 20:50:29;;;;;;;19.20;10.90;;;;;;;9.78;100.00;100587.48;106073;1256;77488;-76
2024/03/17 20:53:04;;;;;;;19.40;10.50;;;;;;;9.78;100.00;100590.38;106284;1256;69708;-76
2024/03/17 20:55:31;;;;;;;18.30;11.10;;;;;;;9.73;100.00;100590.86;106195;1256;73094;-77
2024/03/17 20:57:59;;;;;;;19.40;10.80;;;;;;;9.70;100.00;100589.21;105989;1254;62300;-77
2024/03/17 21:00:28;;;;;;;18.20;10.10;;;;;;;9.67;100.00;100590.52;106468;1253;62401;-77
2024/03/17 21:03:02;;;;;;;18.50;10.80;;;;;;;9.68;100.00;100590.30;105955;1256;76971;-77
2024/03/17 21:05:37;;;;;;;17.50;10.60;;;;;;;9.69;100.00;100590.85;106221;1256;68434;-76
2024/03/17 21:08:05;;;;;;;20.20;10.90;;;;;;;9.68;100.00;100589.98;106027;1254;74930;-83
2024/03/17 21:10:39;;;;;;;18.80;11.00;;;;;;;9.69;100.00;100586.92;106004;1255;62030;-83
2024/03/17 21:13:13;;;;;;;18.60;10.50;;;;;;;9.71;100.00;100584.73;106470;1254;62360;-82
2024/03/17 21:15:46;;;;;;;18.40;11.20;;;;;;;9.69;100.00;100585.50;106181;1253;76551;-82
2024/03/17 21:18:17;;;;;;;16.50;10.50;;;;;;;9.69;100.00;100581.64;106192;1254;71009;-83
2024/03/17 21:20:45;;;;;;;18.90;10.50;;;;;;;9.69;100.00;100578.58;106205;1254;73385;-83
2024/03/17 21:23:18;;;;;;;19.20;12.10;;;;;;;9.70;100.00;100577.70;106193;1253;62037;-83
2024/03/17 21:25:52;;;;;;;17.50;10.90;;;;;;;9.70;100.00;100573.94;106123;1254;62048;-83
2024/03/17 21:28:25;;;;;;;20.10;11.60;;;;;;;9.71;100.00;100576.50;106446;1254;76250;-84
2024/03/17 21:31:01;;;;;;;20.60;11.60;;;;;;;9.70;100.00;100575.19;106102;1252;69796;-77
2024/03/17 21:33:35;;;;;;;19.70;12.10;;;;;;;9.66;100.00;100571.20;106045;1253;73869;-77
2024/03/17 21:36:06;;;;;;;19.10;11.30;;;;;;;9.65;100.00;100569.94;106101;1253;62127;-77
2024/03/17 21:38:39;;;;;;;19.20;11.40;;;;;;;9.64;100.00;100567.43;106286;1254;62053;-77
2024/03/17 21:41:19;;;;;;;19.00;11.60;;;;;;;9.64;100.00;100570.38;106167;1254;76180;-77
2024/03/17 21:43:53;;;;;;;19.80;11.30;;;;;;;9.60;100.00;100567.86;106445;1254;67389;-77
2024/03/17 21:46:22;;;;;;;18.70;11.10;;;;;;;9.55;100.00;100564.41;106220;1254;72633;-77
2024/03/17 21:48:56;;;;;;;17.90;10.90;;;;;;;9.49;100.00;100565.34;105944;1254;62124;-77
2024/03/17 21:51:29;;;;;;;22.00;10.50;;;;;;;9.44;100.00;100562.74;105983;1254;62088;-84
2024/03/17 21:54:04;;;;;;;18.20;11.20;;;;;;;9.39;100.00;100557.34;105991;1253;74525;-77
2024/03/17 21:56:31;;;;;;;20.50;11.20;;;;;;;9.32;100.00;100557.32;106164;1253;68326;-78
2024/03/17 21:59:09;;;;;;;24.40;11.60;;;;;;;9.27;100.00;100558.60;106235;1256;71072;-83
2024/03/17 22:01:44;;;;;;;20.20;11.30;;;;;;;9.18;100.00;100555.64;106069;1254;62098;-77
2024/03/17 22:04:17;;;;;;;20.70;12.20;;;;;;;9.09;100.00;100552.22;106256;1254;61874;-77
2024/03/17 22:06:45;;;;;;;19.60;10.60;;;;;;;9.02;100.00;100550.17;106187;1256;74178;-82
2024/03/17 22:09:18;;;;;;;19.40;11.10;;;;;;;8.93;100.00;100545.99;106118;1257;67891;-81
2024/03/17 22:11:52;;;;;;;20.90;11.60;;;;;;;8.83;100.00;100546.11;106111;1254;72668;-78
2024/03/17 22:14:20;;;;;;;23.00;12.30;;;;;;;8.76;100.00;100544.45;106290;1253;62171;-78
2024/03/17 22:16:53;;;;;;;23.70;13.70;;;;;;;8.67;100.00;100543.64;106121;1256;62137;-77
2024/03/17 22:19:28;;;;;;;19.80;11.30;;;;;;;8.55;100.00;100547.45;106099;1254;75458;-82
2024/03/17 22:22:03;;;;;;;;;;;;;;;8.48;100.00;100545.61;106065;1254;68767;-78
2024/03/17 22:24:37;;;;;;;20.60;11.50;;;;;;;8.40;100.00;100547.71;106038;1256;72476;-78
2024/03/17 22:27:11;;;;;;;20.90;11.40;;;;;;;8.36;100.00;100551.65;106074;1254;62114;-77
2024/03/17 22:29:38;;;;;;;18.60;10.40;;;;;;;8.37;100.00;100548.55;105965;1256;60069;-77
2024/03/17 22:32:10;;;;;;;19.10;11.50;;;;;;;8.37;100.00;100544.04;105974;1253;75418;-82
2024/03/17 22:34:44;;;;;;;19.90;11.70;;;;;;;8.37;100.00;100543.70;106285;1256;67206;-78
2024/03/17 22:37:18;;;;;;;18.80;10.80;;;;;;;8.38;100.00;100539.14;106944;1254;71721;-78
2024/03/17 22:39:49;;;;;;;18.10;11.20;;;;;;;8.44;100.00;100540.52;106212;1254;62127;-78
2024/03/17 22:42:23;;;;;;;19.30;11.50;;;;;;;8.46;100.00;100539.11;106006;1254;61986;-83
2024/03/17 22:44:56;;;;;;;21.30;11.60;;;;;;;8.48;100.00;100539.08;105916;1254;74513;-83
2024/03/17 22:47:30;;;;;;;19.20;11.50;;;;;;;8.48;100.00;100539.39;106246;1254;68719;-83
2024/03/17 22:49:59;;;;;;;19.60;10.90;;;;;;;8.48;100.00;100537.20;106107;1256;72685;-83
2024/03/17 22:52:33;;;;;;;27.40;12.00;;;;;;;8.56;100.00;100538.29;106023;1254;62177;-80
2024/03/17 22:55:07;;;;;;;20.60;12.60;;;;;;;8.59;100.00;100534.72;106130;1254;62178;-78
2024/03/17 22:57:41;;;;;;;22.00;12.30;;;;;;;8.64;100.00;100535.73;106723;1254;75455;-83
2024/03/17 23:00:29;;;;;;;21.80;12.00;;;;;;;8.66;100.00;100533.29;106727;1253;69028;-83
2024/03/17 23:03:02;;;;;;;18.60;11.50;;;;;;;8.72;100.00;100531.73;106624;1254;72640;-78
2024/03/17 23:05:37;;;;;;;18.80;11.30;;;;;;;8.79;100.00;100529.59;106368;1254;62117;-78
2024/03/17 23:08:11;;;;;;;19.80;11.60;;;;;;;8.85;100.00;100531.64;106804;1252;62032;-82
2024/03/17 23:10:44;;;;;;;20.40;11.70;;;;;;;8.88;100.00;100530.94;106784;1254;75498;-83
2024/03/17 23:13:21;;;;;;;19.00;11.90;;;;;;;8.93;100.00;100530.52;107344;1256;67125;-77
2024/03/17 23:15:56;;;;;;;19.70;11.20;;;;;;;8.98;100.00;100530.27;106407;1256;72678;-78
2024/03/17 23:18:30;;;;;;;21.10;12.00;;;;;;;9.05;100.00;100530.14;106525;1254;62137;-78
2024/03/17 23:21:04;;;;;;;22.00;12.00;;;;;;;9.08;100.00;100527.41;106407;1252;61999;-79
2024/03/17 23:23:38;;;;;;;20.70;11.80;;;;;;;9.09;100.00;100520.93;106407;1252;77688;-78
2024/03/17 23:26:14;;;;;;;17.80;11.40;;;;;;;9.10;100.00;100520.77;106485;1254;68616;-78
2024/03/17 23:28:48;;;;;;;19.40;11.00;;;;;;;9.16;100.00;100518.00;106420;1255;70457;-78
2024/03/17 23:31:22;;;;;;;20.10;11.40;;;;;;;9.21;100.00;100517.42;106304;1253;61983;-83
2024/03/17 23:33:59;;;;;;;19.50;11.00;;;;;;;9.23;100.00;100518.89;106525;1256;62037;-78
2024/03/17 23:36:33;;;;;;;20.90;11.40;;;;;;;9.27;100.00;100520.05;106611;1254;74138;-78
2024/03/17 23:39:08;;;;;;;19.60;11.70;;;;;;;9.25;100.00;100515.37;107465;1256;67150;-82
2024/03/17 23:41:42;;;;;;;16.90;10.20;;;;;;;9.27;100.00;100514.22;106552;1255;71482;-83
2024/03/17 23:44:17;;;;;;;16.30;8.50;;;;;;;9.30;100.00;100512.16;106627;1252;62124;-82
